首页
METAR-TAF:

METAR-TAF

机场 :

石勒苏益格-Jagel, 德国

纬度: 54-28N, 经度: 009-31E, 海拔: 22米

当前天气观测

该预报发布于16分钟前的06:20 UTC
风速4节,风向西转西南
温度 5°C
湿度 100%
气压 1003 hPa
能見度: 5000
多云层高于100英尺
小毛毛雨, 轻雾

METAR: ETNS 190620Z 24004KT 5000 -DZ BR BKN001 05/05 Q1003 RED GRN TEMPO RED

时间: 07:36 (06:36 UTC)

预报

该预报发布于1小时和1分钟前的05:35 UTC
预报有效从19日的 06点(UTC)到 19日的 15点(UTC)
风速12节,风向西南
能見度: 5000
多云层高于700英尺
小毛毛雨
短暂存在
从 19日的 06点(UTC)到 19日的 07点(UTC)
风速10节,风向南转南东,有时为20节阵风
能見度: 1500
多云层高于100英尺
毛毛雨, 雨
短暂存在
从 19日的 07点(UTC)到 19日的 09点(UTC)
风速10节,风向南转南东,有时为20节阵风
能見度: 2000
多云层高于300英尺
毛毛雨, 雨
成为
从 19日的 09点(UTC)到 19日的 11点(UTC)
风速12节,风向西南,有时为22节阵风
能见度10公里或以上
多云层高于3000英尺
短暂存在
从 19日的 11点(UTC)到 19日的 15点(UTC)
风速15节,风向西转西南,有时为25节阵风
能見度: 4000
多云层高于2000英尺
小阵雨

TAF: ETNS 190535Z 1906/1915 22012KT 5000 -DZ BKN007 TEMPO 1906/1907 15010G20KT 1500 DZRA BKN001 TEMPO 1907/1909 15010G20KT 2000 DZRA BKN003 BECMG 1909/1911 23012G22KT 9999 NSW BKN030 TEMPO 1911/1915 24015G25KT 4000 -SHRA BKN020 BY ETGL

超过4000个机场的气象观测和天气预报(METAR&TAF报告)。

可查询的气象台以黄色和红色小点在地图上表示。

将鼠标移到小点上方,可查看气象台名称。

然后点击查看天气观测和预报。

如需切换地图:点击带黑十字的绿色按钮放大地图;点击带横线的绿色按钮缩小地图;或者点击绿色箭头查看邻近地区的地图。


METAR-TAF: